San Mateo, CA (94401)

7:42 AM PST on February 11, 2016 (GMT -0800)
North Shoreview | | Change Station
CLOSE
Current Station
Personal Weather Station
Location: San Mateo, CA
Elevation: -16 ft
Nearby Weather Stations

Elev -16 ft 37.58 °N, 122.32 °W | Updated 4 seconds ago

Partly Cloudy
Partly Cloudy
49.1 °F
Feels Like 49 °F
N
0.0
Wind Variable Wind from NNE
Gusts 0.0 mph

Today
High -- | Low -- °F
--% Chance of Precip.
Yesterday
High -- | Low -- °F
Precip. -- in
Pressure 30.14 in
Visibility 8.0 miles
Clouds Mostly Cloudy 20000 ft
Windchill 49 °F
Dew Point 49 °F
Humidity 99%
Rainfall 0.00 in
Snow Depth Not available.
7:03 AM 5:43 PM
Waxing Crescent, 12% visible
METAR KSFO 111456Z 01006KT 8SM BKN200 13/12 A3014 RMK AO2 SLP206 T01280117 53004
Pressure 30.14 in
Visibility 8.0 miles
Clouds Mostly Cloudy 20000 ft
Windchill 49 °F
Dew Point 49 °F
Humidity 99%
Rainfall 0.00 in
Snow Depth Not available.
7:03 AM 5:43 PM
Waxing Crescent, 12% visible
METAR KSFO 111456Z 01006KT 8SM BKN200 13/12 A3014 RMK AO2 SLP206 T01280117 53004

10-Day Weather Forecast

Almanac

Astronomy

Feb. 11, 2016 Rise Set
Actual Time
Civil Twilight
Nautical Twilight
Astronomical Twilight
Moon
Length of Visible Light
Length of Day
Tomorrow will be .
, % of the Moon is Illuminated

Today's Extremes

State Highs State Lows

Community

WunderPhotos

Upload Photos

1,892,081 photos uploaded!

WunderBlog® & News

Nearby

Air Quality

  Air Quality AQ Index Pollutant
Not available.

Snow Depth

Station Depth Elevation

Earthquake Activity

City Distance Mag. Time & Date
Minimum magnitude displayed is 2.5.

Coastal Water Temperatures

Place Temperature

Stations

Nearby Weather Stations

Station Location Temp. Windchill Dew Point Humidity Wind Precip. Elev Updated Type
                   

Watches & Warnings

There are currently no watches in effect.